createdAt,value
2019-03-10T00:00:46.891Z,88.60
2019-03-10T00:03:15.709Z,87.50
2019-03-10T00:05:45.169Z,86.70
2019-03-10T00:08:12.277Z,87.10
2019-03-10T00:10:39.397Z,87.30
2019-03-10T00:13:07.445Z,89.70
2019-03-10T00:15:34.533Z,87.30
2019-03-10T00:18:01.546Z,88.00
2019-03-10T00:20:29.610Z,87.30
2019-03-10T00:22:56.672Z,86.70
2019-03-10T00:25:37.268Z,87.30
2019-03-10T00:28:04.379Z,88.30
2019-03-10T00:30:44.081Z,88.60
2019-03-10T00:33:11.173Z,88.00
2019-03-10T00:35:38.575Z,87.60
2019-03-10T00:38:05.672Z,87.70
2019-03-10T00:40:40.508Z,88.10
2019-03-10T00:43:31.914Z,90.10
2019-03-10T00:46:28.302Z,89.30
2019-03-10T00:49:25.997Z,89.10
2019-03-10T00:52:08.987Z,88.50
2019-03-10T00:54:36.123Z,88.60
2019-03-10T00:57:04.279Z,90.20
2019-03-10T00:59:31.396Z,90.10
2019-03-10T01:01:58.422Z,91.50
2019-03-10T01:04:25.463Z,90.70
2019-03-10T01:06:53.828Z,90.40
2019-03-10T01:09:22.273Z,89.60
2019-03-10T01:11:49.326Z,89.80
2019-03-10T01:14:16.397Z,88.50
2019-03-10T01:16:44.184Z,90.80
2019-03-10T01:19:11.393Z,91.10
2019-03-10T01:21:40.098Z,89.40
2019-03-10T01:24:07.214Z,93.60
2019-03-10T01:26:34.273Z,89.90
2019-03-10T01:29:01.433Z,89.90
2019-03-10T01:31:32.078Z,90.00
2019-03-10T01:34:31.465Z,94.80
2019-03-10T01:37:00.706Z,92.10
2019-03-10T01:39:27.755Z,91.30
2019-03-10T01:41:54.783Z,91.30
2019-03-10T01:44:21.850Z,91.20
2019-03-10T01:46:48.905Z,91.10
2019-03-10T01:49:16.025Z,91.40
2019-03-10T01:51:43.049Z,91.30
2019-03-10T01:54:10.236Z,91.20
2019-03-10T01:56:38.705Z,91.90
2019-03-10T01:59:08.053Z,91.50
2019-03-10T02:01:35.099Z,92.10
2019-03-10T02:04:02.181Z,92.30
2019-03-10T02:06:30.230Z,92.10
2019-03-10T02:08:57.309Z,92.00
2019-03-10T02:11:24.335Z,92.00
2019-03-10T02:13:51.432Z,91.80
2019-03-10T02:16:18.456Z,93.10
2019-03-10T02:18:46.397Z,92.50
2019-03-10T02:21:13.420Z,91.80
2019-03-10T02:23:40.493Z,91.40
2019-03-10T02:26:07.560Z,91.30
2019-03-10T02:28:34.618Z,91.50
2019-03-10T02:31:01.687Z,91.50
2019-03-10T02:33:29.115Z,91.30
2019-03-10T02:35:56.160Z,91.30
2019-03-10T02:38:23.311Z,91.50
2019-03-10T02:40:50.334Z,91.50
2019-03-10T02:43:17.416Z,91.60
2019-03-10T02:45:44.465Z,92.20
2019-03-10T02:48:11.543Z,92.20
2019-03-10T02:50:38.588Z,92.30
2019-03-10T02:53:05.651Z,93.00
2019-03-10T02:55:32.767Z,92.70
2019-03-10T02:57:59.952Z,93.40
2019-03-10T03:00:26.967Z,93.40
2019-03-10T03:02:54.050Z,93.50
2019-03-10T03:05:21.110Z,93.30
2019-03-10T03:07:48.224Z,93.60
2019-03-10T03:10:15.306Z,93.80
2019-03-10T03:12:44.178Z,93.30
2019-03-10T03:15:11.239Z,93.80
2019-03-10T03:17:38.321Z,93.00
2019-03-10T03:20:08.478Z,93.20
2019-03-10T03:22:35.584Z,93.70
2019-03-10T03:25:06.221Z,93.70
2019-03-10T03:27:35.210Z,93.20
2019-03-10T03:30:02.663Z,93.30
2019-03-10T03:32:31.377Z,94.90
2019-03-10T03:34:58.866Z,94.60
2019-03-10T03:37:26.240Z,93.80
2019-03-10T03:39:53.405Z,94.80
2019-03-10T03:42:21.343Z,93.70
2019-03-10T03:44:48.591Z,92.90
2019-03-10T03:47:16.660Z,93.00
2019-03-10T03:49:43.815Z,93.20
2019-03-10T03:52:10.929Z,93.30
2019-03-10T03:54:39.885Z,93.70
2019-03-10T03:57:10.238Z,94.20
2019-03-10T03:59:37.330Z,93.90
2019-03-10T04:02:06.186Z,93.80
2019-03-10T04:04:33.573Z,94.20
2019-03-10T04:07:00.727Z,94.30
2019-03-10T04:09:29.080Z,94.00
2019-03-10T04:11:56.127Z,94.60
2019-03-10T04:14:23.135Z,94.30
2019-03-10T04:16:51.273Z,95.40
2019-03-10T04:19:19.514Z,95.30
2019-03-10T04:21:47.626Z,95.20
2019-03-10T04:24:14.796Z,94.90
2019-03-10T04:26:41.886Z,94.80
2019-03-10T04:29:09.066Z,94.50
2019-03-10T04:31:36.276Z,93.90
2019-03-10T04:34:03.413Z,93.20
2019-03-10T04:36:30.490Z,93.50
2019-03-10T04:38:57.552Z,94.40
2019-03-10T04:41:24.638Z,93.80
2019-03-10T04:43:51.875Z,94.00
2019-03-10T04:46:18.928Z,95.00
2019-03-10T04:48:46.024Z,94.70
2019-03-10T04:51:13.147Z,94.60
2019-03-10T04:53:40.255Z,93.90
2019-03-10T04:56:09.113Z,94.00
2019-03-10T04:58:38.072Z,94.30
2019-03-10T05:01:05.174Z,94.30
2019-03-10T05:03:33.645Z,94.10
2019-03-10T05:06:00.685Z,93.80
2019-03-10T05:08:27.687Z,93.90
2019-03-10T05:10:54.797Z,93.70
2019-03-10T05:13:21.830Z,94.10
2019-03-10T05:15:49.787Z,93.90
2019-03-10T05:18:17.825Z,93.90
2019-03-10T05:20:45.022Z,93.90
2019-03-10T05:23:33.505Z,94.20
2019-03-10T05:26:00.532Z,94.80
2019-03-10T05:28:29.465Z,95.00
2019-03-10T05:30:58.888Z,94.80
2019-03-10T05:33:25.891Z,94.90
2019-03-10T05:35:52.967Z,95.10
2019-03-10T05:38:20.036Z,95.10
2019-03-10T05:40:47.218Z,95.40
2019-03-10T05:43:15.169Z,95.30
2019-03-10T05:45:42.374Z,95.30
2019-03-10T05:48:09.893Z,95.30
2019-03-10T05:50:36.994Z,95.10
2019-03-10T05:53:04.128Z,95.00
2019-03-10T05:55:31.386Z,95.20
2019-03-10T05:57:59.563Z,96.90
2019-03-10T06:00:26.813Z,96.20
2019-03-10T06:02:55.168Z,96.10
2019-03-10T06:05:22.539Z,97.20
2019-03-10T06:07:49.894Z,95.90
2019-03-10T06:10:17.017Z,95.50
2019-03-10T06:12:44.210Z,95.40
2019-03-10T06:15:11.427Z,95.50
2019-03-10T06:17:38.625Z,95.60
2019-03-10T06:20:08.149Z,95.50
2019-03-10T06:22:35.223Z,95.80
2019-03-10T06:25:02.242Z,95.60
2019-03-10T06:27:49.174Z,95.70
2019-03-10T06:30:16.370Z,95.70
2019-03-10T06:32:43.467Z,95.60
2019-03-10T06:35:11.544Z,95.50
2019-03-10T06:37:38.594Z,95.50
2019-03-10T06:40:07.015Z,95.60
2019-03-10T06:42:34.288Z,95.80
2019-03-10T06:45:01.333Z,96.00
2019-03-10T06:47:28.462Z,95.80
2019-03-10T06:49:55.496Z,95.40
2019-03-10T06:52:22.610Z,95.00
2019-03-10T06:54:49.641Z,94.60
2019-03-10T06:57:19.452Z,96.70
2019-03-10T06:59:46.670Z,94.10
2019-03-10T07:02:15.785Z,93.40
2019-03-10T07:04:43.200Z,91.50
2019-03-10T07:07:10.275Z,90.30
2019-03-10T07:09:37.294Z,90.20
2019-03-10T07:12:04.413Z,90.20
2019-03-10T07:14:31.433Z,89.50
2019-03-10T07:16:58.488Z,88.90
2019-03-10T07:19:25.554Z,90.30
2019-03-10T07:21:52.627Z,90.80
2019-03-10T07:24:19.648Z,91.30
2019-03-10T07:26:46.673Z,91.50
2019-03-10T07:29:16.634Z,91.50
2019-03-10T07:31:51.647Z,91.40
2019-03-10T07:34:29.367Z,91.20
2019-03-10T07:37:10.390Z,91.20
2019-03-10T07:39:48.078Z,91.20
2019-03-10T07:42:16.887Z,91.90
2019-03-10T07:44:48.705Z,93.50
2019-03-10T07:47:17.533Z,92.90
2019-03-10T07:49:46.406Z,92.60
2019-03-10T07:52:20.543Z,92.40
2019-03-10T07:55:08.798Z,92.20
2019-03-10T07:57:40.431Z,92.10
2019-03-10T08:00:19.054Z,91.60
2019-03-10T08:02:56.514Z,91.30
2019-03-10T08:05:31.275Z,91.20
2019-03-10T08:08:14.927Z,90.90
2019-03-10T08:10:49.720Z,91.00
2019-03-10T08:13:24.129Z,91.10
2019-03-10T08:15:55.765Z,90.70
2019-03-10T08:18:32.306Z,90.30
2019-03-10T08:21:04.098Z,90.10
2019-03-10T08:23:51.686Z,88.40
2019-03-10T08:26:26.661Z,86.70
2019-03-10T08:29:11.073Z,86.60
2019-03-10T08:31:39.930Z,85.60
2019-03-10T08:34:14.673Z,84.70
2019-03-10T08:36:43.590Z,89.40
2019-03-10T08:39:24.945Z,84.40
2019-03-10T08:42:19.519Z,91.40
2019-03-10T08:44:58.061Z,85.40
2019-03-10T08:47:30.547Z,86.60
2019-03-10T08:50:05.136Z,88.70
2019-03-10T08:52:36.181Z,91.60
2019-03-10T08:55:24.095Z,88.90
2019-03-10T08:57:53.379Z,88.70
2019-03-10T09:00:28.341Z,90.10
2019-03-10T09:03:02.504Z,90.40
2019-03-10T09:05:48.393Z,90.50
2019-03-10T09:08:26.090Z,91.70
2019-03-10T09:10:54.942Z,92.50
2019-03-10T09:13:32.646Z,91.40
2019-03-10T09:16:02.810Z,92.60
2019-03-10T09:18:34.273Z,93.00
2019-03-10T09:21:12.241Z,90.10
2019-03-10T09:23:57.387Z,91.20
2019-03-10T09:26:38.671Z,87.70
2019-03-10T09:29:07.566Z,90.00
2019-03-10T09:31:36.473Z,91.00
2019-03-10T09:34:14.461Z,92.50
2019-03-10T09:36:46.534Z,91.70
2019-03-10T09:39:32.988Z,90.80
2019-03-10T09:42:11.106Z,90.70
2019-03-10T09:44:42.733Z,90.70
2019-03-10T09:47:28.874Z,90.00
2019-03-10T09:50:12.369Z,89.70
2019-03-10T09:52:50.559Z,88.90
2019-03-10T09:55:24.960Z,90.10
2019-03-10T09:57:56.603Z,92.00
2019-03-10T10:00:28.521Z,88.60
2019-03-10T10:02:58.221Z,85.70
2019-03-10T10:05:35.975Z,85.10
2019-03-10T10:08:04.859Z,81.10
2019-03-10T10:10:40.171Z,80.00
2019-03-10T10:13:21.421Z,80.80
2019-03-10T10:15:58.521Z,79.80
2019-03-10T10:18:30.236Z,90.70
2019-03-10T10:21:10.973Z,86.20
2019-03-10T10:23:53.896Z,90.30
2019-03-10T10:26:22.747Z,88.60
2019-03-10T10:28:57.713Z,90.00
2019-03-10T10:31:27.635Z,86.60
2019-03-10T10:34:13.668Z,86.20
2019-03-10T10:36:54.833Z,85.00
2019-03-10T10:39:27.591Z,84.70
2019-03-10T10:41:56.975Z,84.40
2019-03-10T10:44:28.846Z,86.60
2019-03-10T10:46:57.895Z,86.30
2019-03-10T10:49:42.014Z,84.30
2019-03-10T10:52:13.999Z,83.50
2019-03-10T10:54:46.921Z,81.90
2019-03-10T10:57:34.457Z,79.20
2019-03-10T11:00:03.912Z,81.10
2019-03-10T11:02:36.621Z,81.80
2019-03-10T11:05:23.835Z,85.80
2019-03-10T11:08:09.720Z,82.10
2019-03-10T11:10:41.423Z,81.80
2019-03-10T11:13:23.162Z,82.50
2019-03-10T11:15:54.971Z,82.50
2019-03-10T11:18:41.845Z,83.30
2019-03-10T11:21:10.949Z,84.60
2019-03-10T11:23:40.047Z,85.80
2019-03-10T11:26:14.665Z,83.60
2019-03-10T11:28:49.384Z,84.00
2019-03-10T11:31:33.921Z,83.20
2019-03-10T11:34:05.901Z,88.90
2019-03-10T11:36:41.203Z,90.40
2019-03-10T11:39:22.004Z,90.80
2019-03-10T11:42:00.649Z,92.30
2019-03-10T11:44:35.316Z,91.80
2019-03-10T11:47:03.898Z,92.30
2019-03-10T11:49:34.556Z,91.70
2019-03-10T11:52:15.646Z,92.80
2019-03-10T11:54:44.927Z,93.00
2019-03-10T11:57:27.056Z,92.30
2019-03-10T11:59:59.261Z,92.40
2019-03-10T12:02:30.835Z,92.50
2019-03-10T12:05:04.540Z,92.90
2019-03-10T12:07:33.563Z,92.40
2019-03-10T12:10:00.578Z,93.00
2019-03-10T12:12:27.725Z,92.80
2019-03-10T12:14:54.755Z,93.10
2019-03-10T12:17:21.868Z,93.50
2019-03-10T12:19:49.353Z,93.20
2019-03-10T12:22:18.850Z,93.00
2019-03-10T12:24:47.193Z,93.70
2019-03-10T12:27:14.239Z,93.60
2019-03-10T12:29:42.374Z,93.50
2019-03-10T12:32:09.549Z,93.00
2019-03-10T12:34:36.744Z,93.00
2019-03-10T12:37:03.852Z,92.70
2019-03-10T12:39:30.959Z,92.80
2019-03-10T12:41:58.982Z,92.60
2019-03-10T12:44:26.296Z,92.20
2019-03-10T12:46:53.393Z,92.80
2019-03-10T12:49:20.458Z,92.50
2019-03-10T12:51:47.544Z,92.80
2019-03-10T12:54:14.609Z,92.80
2019-03-10T12:56:41.887Z,92.70
2019-03-10T12:59:09.141Z,92.60
2019-03-10T13:01:36.317Z,92.70
2019-03-10T13:04:05.378Z,93.00
2019-03-10T13:06:32.506Z,93.10
2019-03-10T13:09:02.273Z,93.30
2019-03-10T13:11:31.320Z,93.80
2019-03-10T13:13:58.392Z,93.80
2019-03-10T13:16:25.451Z,94.60
2019-03-10T13:18:52.506Z,94.40
2019-03-10T13:21:19.550Z,95.30
2019-03-10T13:23:46.714Z,94.80
2019-03-10T13:26:13.754Z,94.40
2019-03-10T13:28:40.869Z,93.70
2019-03-10T13:31:08.897Z,93.90
2019-03-10T13:33:39.854Z,94.00
2019-03-10T13:36:07.670Z,94.70
2019-03-10T13:38:34.719Z,94.50
2019-03-10T13:41:02.584Z,94.50
2019-03-10T13:43:29.729Z,94.20
2019-03-10T13:45:56.811Z,93.80
2019-03-10T13:48:23.925Z,93.50
2019-03-10T13:50:50.975Z,93.00
2019-03-10T13:53:18.039Z,93.30
2019-03-10T13:55:45.099Z,92.90
2019-03-10T13:58:12.209Z,92.20
2019-03-10T14:00:39.271Z,92.50
2019-03-10T14:03:08.292Z,92.40
2019-03-10T14:05:35.441Z,92.20
2019-03-10T14:08:02.638Z,92.50
2019-03-10T14:10:29.789Z,92.40
2019-03-10T14:12:56.898Z,92.50
2019-03-10T14:15:24.606Z,92.30
2019-03-10T14:17:51.780Z,91.70
2019-03-10T14:20:18.850Z,91.20
2019-03-10T14:22:45.961Z,90.60
2019-03-10T14:25:14.216Z,90.70
2019-03-10T14:27:41.682Z,90.50
2019-03-10T14:30:17.436Z,90.30
2019-03-10T14:32:44.494Z,90.80
2019-03-10T14:35:11.689Z,90.60
2019-03-10T14:37:39.006Z,90.20
2019-03-10T14:40:09.693Z,90.40
2019-03-10T14:42:36.883Z,88.70
2019-03-10T14:45:07.574Z,89.40
2019-03-10T14:47:35.029Z,88.80
2019-03-10T14:50:02.929Z,86.80
2019-03-10T14:52:30.109Z,86.20
2019-03-10T14:54:57.169Z,81.50
2019-03-10T14:57:24.202Z,81.80
2019-03-10T14:59:51.262Z,83.10
2019-03-10T15:02:20.278Z,82.70
2019-03-10T15:04:47.447Z,84.40
2019-03-10T15:07:14.723Z,84.50
2019-03-10T15:09:41.790Z,81.00
2019-03-10T15:12:08.809Z,80.70
2019-03-10T15:14:35.841Z,80.30
2019-03-10T15:17:02.845Z,81.30
2019-03-10T15:19:29.900Z,83.10
2019-03-10T15:21:56.875Z,83.80
2019-03-10T15:24:24.050Z,85.20
2019-03-10T15:26:52.986Z,85.90
2019-03-10T15:29:20.066Z,86.50
2019-03-10T15:31:47.233Z,88.30
2019-03-10T15:34:15.801Z,89.50
2019-03-10T15:36:42.854Z,89.90
2019-03-10T15:39:10.043Z,89.70
2019-03-10T15:41:37.382Z,90.60
2019-03-10T15:44:04.710Z,91.30
2019-03-10T15:46:31.949Z,91.80
2019-03-10T15:48:59.145Z,91.60
2019-03-10T15:51:27.238Z,92.60
2019-03-10T15:53:54.368Z,92.90
2019-03-10T15:56:21.450Z,93.30
2019-03-10T15:58:48.568Z,93.50
2019-03-10T16:01:15.633Z,93.70
2019-03-10T16:03:43.478Z,93.40
2019-03-10T16:06:11.367Z,93.60
2019-03-10T16:08:38.482Z,94.20
2019-03-10T16:11:05.482Z,94.40
2019-03-10T16:13:32.509Z,94.00
2019-03-10T16:15:59.491Z,93.90
2019-03-10T16:18:26.603Z,93.50
2019-03-10T16:20:53.619Z,93.30
2019-03-10T16:23:20.692Z,93.20
2019-03-10T16:25:47.820Z,93.70
2019-03-10T16:28:14.946Z,93.20
2019-03-10T16:30:42.993Z,93.60
2019-03-10T16:33:10.142Z,93.50
2019-03-10T16:35:37.316Z,94.30
2019-03-10T16:38:09.969Z,94.50
2019-03-10T16:40:37.269Z,94.60
2019-03-10T16:43:04.478Z,95.30
2019-03-10T16:45:31.631Z,95.40
2019-03-10T16:47:58.881Z,95.80
2019-03-10T16:50:27.001Z,95.60
2019-03-10T16:52:54.159Z,96.00
2019-03-10T16:55:22.332Z,96.30
2019-03-10T16:57:49.939Z,96.20
2019-03-10T17:00:19.368Z,96.60
2019-03-10T17:02:47.583Z,96.40
2019-03-10T17:05:17.921Z,96.70
2019-03-10T17:07:47.717Z,96.50
2019-03-10T17:10:23.417Z,96.40
2019-03-10T17:12:50.601Z,95.70
2019-03-10T17:15:21.814Z,96.00
2019-03-10T17:17:49.435Z,96.00
2019-03-10T17:20:17.345Z,95.90
2019-03-10T17:22:45.745Z,95.60
2019-03-10T17:25:14.904Z,95.60
2019-03-10T17:27:43.198Z,95.60
2019-03-10T17:30:21.634Z,95.10
2019-03-10T17:32:48.911Z,94.80
2019-03-10T17:35:16.949Z,94.60
2019-03-10T17:37:48.329Z,94.60
2019-03-10T17:40:20.700Z,95.00
2019-03-10T17:42:47.701Z,94.40
2019-03-10T17:45:19.650Z,94.40
2019-03-10T17:47:47.539Z,93.80
2019-03-10T17:50:16.823Z,93.70
2019-03-10T17:52:43.873Z,94.10
2019-03-10T17:55:13.008Z,93.20
2019-03-10T17:57:40.105Z,93.80
2019-03-10T18:00:15.489Z,93.20
2019-03-10T18:02:42.498Z,92.90
2019-03-10T18:05:09.853Z,93.20
2019-03-10T18:07:37.268Z,92.30
2019-03-10T18:10:09.989Z,93.10
2019-03-10T18:12:37.019Z,92.40
2019-03-10T18:15:09.006Z,92.70
2019-03-10T18:17:36.259Z,92.50
2019-03-10T18:20:07.005Z,93.30
2019-03-10T18:22:34.142Z,92.30
2019-03-10T18:25:02.189Z,92.30
2019-03-10T18:27:29.237Z,92.40
2019-03-10T18:29:56.349Z,92.10
2019-03-10T18:32:25.348Z,91.80
2019-03-10T18:34:52.539Z,92.20
2019-03-10T18:37:19.571Z,92.10
2019-03-10T18:39:46.631Z,92.40
2019-03-10T18:42:14.686Z,92.90
2019-03-10T18:44:42.847Z,93.30
2019-03-10T18:47:10.024Z,93.20
2019-03-10T18:49:37.254Z,93.50
2019-03-10T18:52:04.303Z,93.40
2019-03-10T18:54:31.462Z,93.90
2019-03-10T18:56:58.461Z,93.70
2019-03-10T18:59:26.732Z,93.50
2019-03-10T19:01:53.716Z,93.50
2019-03-10T19:04:20.994Z,93.80
2019-03-10T19:06:48.007Z,93.80
2019-03-10T19:09:16.437Z,94.10
2019-03-10T19:11:44.801Z,94.60
2019-03-10T19:14:11.808Z,94.80
2019-03-10T19:16:38.881Z,95.20
2019-03-10T19:19:05.966Z,95.30
2019-03-10T19:21:33.321Z,95.30
2019-03-10T19:24:00.529Z,95.30
2019-03-10T19:26:27.786Z,95.20
2019-03-10T19:28:54.956Z,95.30
2019-03-10T19:31:22.017Z,95.30
2019-03-10T19:33:49.001Z,95.40
2019-03-10T19:36:16.081Z,95.40
2019-03-10T19:38:43.088Z,95.10
2019-03-10T19:41:11.635Z,95.20
2019-03-10T19:43:38.705Z,95.30
2019-03-10T19:46:06.099Z,95.40
2019-03-10T19:48:33.129Z,95.80
2019-03-10T19:51:00.549Z,96.00
2019-03-10T19:53:27.703Z,95.90
2019-03-10T19:55:54.916Z,95.90
2019-03-10T19:58:22.065Z,96.20
2019-03-10T20:00:49.129Z,96.70
2019-03-10T20:03:16.272Z,96.60
2019-03-10T20:05:44.219Z,97.00
2019-03-10T20:08:11.497Z,97.50
2019-03-10T20:10:39.898Z,97.90
2019-03-10T20:13:06.970Z,98.50
2019-03-10T20:15:34.251Z,98.80
2019-03-10T20:18:01.315Z,99.00
2019-03-10T20:20:30.979Z,99.10
2019-03-10T20:22:58.030Z,99.30
2019-03-10T20:25:25.131Z,99.50
2019-03-10T20:27:52.288Z,99.50
2019-03-10T20:30:23.985Z,99.50
2019-03-10T20:32:51.172Z,99.60
2019-03-10T20:35:19.467Z,99.90
2019-03-10T20:37:46.817Z,99.90
2019-03-10T20:40:16.264Z,99.90
2019-03-10T20:42:43.263Z,99.70
2019-03-10T20:45:10.467Z,99.90
2019-03-10T20:47:37.551Z,99.90
2019-03-10T20:50:08.141Z,99.90
2019-03-10T20:52:35.291Z,99.90
2019-03-10T20:55:02.385Z,99.90
2019-03-10T20:57:29.576Z,99.90
2019-03-10T21:00:00.503Z,99.90
2019-03-10T21:02:25.677Z,99.90
2019-03-10T21:04:52.741Z,99.90
2019-03-10T21:07:19.749Z,99.90
2019-03-10T21:09:46.842Z,99.90
2019-03-10T21:12:13.921Z,99.90
2019-03-10T21:14:40.985Z,99.90
2019-03-10T21:17:08.018Z,99.90
2019-03-10T21:19:35.109Z,99.90
2019-03-10T21:22:02.135Z,99.90
2019-03-10T21:24:29.194Z,99.90
2019-03-10T21:26:56.253Z,99.90
2019-03-10T21:29:29.452Z,99.90
2019-03-10T21:31:57.987Z,99.90
2019-03-10T21:34:27.461Z,99.90
2019-03-10T21:36:54.526Z,99.90
2019-03-10T21:39:21.600Z,99.90
2019-03-10T21:41:48.665Z,99.90
2019-03-10T21:44:25.807Z,99.90
2019-03-10T21:46:44.558Z,99.90
2019-03-10T21:49:11.561Z,99.90
2019-03-10T21:51:38.598Z,99.90
2019-03-10T21:54:06.624Z,99.90
2019-03-10T21:56:34.162Z,99.90
2019-03-10T21:59:02.182Z,99.90
2019-03-10T22:01:29.348Z,99.90
2019-03-10T22:03:58.963Z,99.90
2019-03-10T22:06:26.040Z,99.90
2019-03-10T22:08:53.179Z,99.90
2019-03-10T22:11:20.379Z,99.90
2019-03-10T22:13:47.610Z,99.90
2019-03-10T22:16:15.213Z,99.90
2019-03-10T22:18:43.262Z,99.90
2019-03-10T22:21:10.541Z,99.90
2019-03-10T22:23:37.532Z,99.90
2019-03-10T22:26:04.674Z,99.90
2019-03-10T22:28:31.678Z,99.90
2019-03-10T22:30:58.778Z,99.90
2019-03-10T22:33:25.822Z,99.90
2019-03-10T22:35:53.162Z,99.90
2019-03-10T22:38:20.254Z,99.90
2019-03-10T22:40:47.361Z,99.90
2019-03-10T22:43:14.408Z,99.90
2019-03-10T22:45:41.456Z,99.90
2019-03-10T22:48:09.559Z,99.90
2019-03-10T22:50:36.534Z,99.90
2019-03-10T22:53:03.572Z,99.90
2019-03-10T22:55:30.579Z,99.90
2019-03-10T22:57:57.974Z,99.90
2019-03-10T23:00:46.662Z,99.90
2019-03-10T23:03:15.623Z,99.90
2019-03-10T23:05:43.013Z,99.90
2019-03-10T23:08:10.092Z,99.90
2019-03-10T23:10:38.304Z,99.90
2019-03-10T23:13:05.349Z,99.90
2019-03-10T23:15:32.373Z,99.90
2019-03-10T23:18:00.912Z,99.90
2019-03-10T23:20:28.035Z,99.90
2019-03-10T23:22:55.169Z,99.90
2019-03-10T23:25:22.182Z,99.90
2019-03-10T23:27:49.269Z,99.90
2019-03-10T23:30:17.545Z,99.90
2019-03-10T23:32:44.674Z,99.90
2019-03-10T23:35:11.905Z,99.90
2019-03-10T23:37:39.077Z,99.90
2019-03-10T23:40:10.258Z,99.90
2019-03-10T23:42:37.556Z,99.90
2019-03-10T23:45:08.162Z,99.90
2019-03-10T23:47:35.337Z,99.90
2019-03-10T23:50:04.689Z,99.90
2019-03-10T23:52:31.816Z,99.90
2019-03-10T23:55:01.222Z,99.90
2019-03-10T23:57:28.336Z,99.90
2019-03-10T23:59:55.360Z,99.90
